sensor_id;sensor_type;location;lat;lon;timestamp;temperature;humidity
41058;DHT22;66768;48.884;2.258;2023-05-07T00:02:21;16.50;99.90
41058;DHT22;66768;48.884;2.258;2023-05-07T00:04:48;16.40;99.90
41058;DHT22;66768;48.884;2.258;2023-05-07T00:07:15;16.30;99.90
41058;DHT22;66768;48.884;2.258;2023-05-07T00:09:41;16.30;99.90
41058;DHT22;66768;48.884;2.258;2023-05-07T00:12:08;16.30;99.90
41058;DHT22;66768;48.884;2.258;2023-05-07T00:14:36;16.30;99.90
41058;DHT22;66768;48.884;2.258;2023-05-07T00:17:04;16.30;99.90
41058;DHT22;66768;48.884;2.258;2023-05-07T00:19:30;16.30;99.90
41058;DHT22;66768;48.884;2.258;2023-05-07T00:21:57;16.30;99.90
41058;DHT22;66768;48.884;2.258;2023-05-07T00:24:24;16.30;99.90
41058;DHT22;66768;48.884;2.258;2023-05-07T00:26:51;16.30;99.90
41058;DHT22;66768;48.884;2.258;2023-05-07T00:29:19;16.30;99.90
41058;DHT22;66768;48.884;2.258;2023-05-07T00:31:49;16.30;99.90
41058;DHT22;66768;48.884;2.258;2023-05-07T00:34:16;16.40;99.90
41058;DHT22;66768;48.884;2.258;2023-05-07T00:36:42;16.40;99.90
41058;DHT22;66768;48.884;2.258;2023-05-07T00:39:09;16.40;99.90
41058;DHT22;66768;48.884;2.258;2023-05-07T00:41:36;16.40;99.90
41058;DHT22;66768;48.884;2.258;2023-05-07T00:44:03;16.50;99.90
41058;DHT22;66768;48.884;2.258;2023-05-07T00:46:30;16.50;99.90
41058;DHT22;66768;48.884;2.258;2023-05-07T00:48:59;16.40;99.90
41058;DHT22;66768;48.884;2.258;2023-05-07T00:51:27;16.40;99.90
41058;DHT22;66768;48.884;2.258;2023-05-07T00:53:55;16.50;99.90
41058;DHT22;66768;48.884;2.258;2023-05-07T00:56:22;16.50;99.90
41058;DHT22;66768;48.884;2.258;2023-05-07T00:58:50;16.50;99.90
41058;DHT22;66768;48.884;2.258;2023-05-07T01:01:17;16.50;99.90
41058;DHT22;66768;48.884;2.258;2023-05-07T01:03:44;16.50;99.90
41058;DHT22;66768;48.884;2.258;2023-05-07T01:06:12;16.50;99.90
41058;DHT22;66768;48.884;2.258;2023-05-07T01:08:42;16.50;99.90
41058;DHT22;66768;48.884;2.258;2023-05-07T01:11:10;16.50;99.90
41058;DHT22;66768;48.884;2.258;2023-05-07T01:13:38;16.50;99.90
41058;DHT22;66768;48.884;2.258;2023-05-07T01:16:06;16.40;99.90
41058;DHT22;66768;48.884;2.258;2023-05-07T01:18:33;16.30;99.90
41058;DHT22;66768;48.884;2.258;2023-05-07T01:21:02;16.40;99.90
41058;DHT22;66768;48.884;2.258;2023-05-07T01:23:33;16.30;99.90
41058;DHT22;66768;48.884;2.258;2023-05-07T01:26:00;16.40;99.90
41058;DHT22;66768;48.884;2.258;2023-05-07T01:28:27;16.30;99.90
41058;DHT22;66768;48.884;2.258;2023-05-07T01:30:56;16.30;99.90
41058;DHT22;66768;48.884;2.258;2023-05-07T01:33:28;16.30;99.90
41058;DHT22;66768;48.884;2.258;2023-05-07T01:35:57;16.30;99.90
41058;DHT22;66768;48.884;2.258;2023-05-07T01:38:26;16.30;99.90
41058;DHT22;66768;48.884;2.258;2023-05-07T01:40:55;16.30;99.90
41058;DHT22;66768;48.884;2.258;2023-05-07T01:43:22;16.30;99.90
41058;DHT22;66768;48.884;2.258;2023-05-07T01:45:49;16.30;99.90
41058;DHT22;66768;48.884;2.258;2023-05-07T01:48:17;16.30;99.90
41058;DHT22;66768;48.884;2.258;2023-05-07T01:50:44;16.30;99.90
41058;DHT22;66768;48.884;2.258;2023-05-07T01:53:11;16.30;99.90
41058;DHT22;66768;48.884;2.258;2023-05-07T01:55:38;16.30;99.90
41058;DHT22;66768;48.884;2.258;2023-05-07T01:58:07;16.40;99.90
41058;DHT22;66768;48.884;2.258;2023-05-07T02:00:33;16.40;99.90
41058;DHT22;66768;48.884;2.258;2023-05-07T02:03:00;16.40;99.90
41058;DHT22;66768;48.884;2.258;2023-05-07T02:05:27;16.40;99.90
41058;DHT22;66768;48.884;2.258;2023-05-07T02:07:54;16.40;99.90
41058;DHT22;66768;48.884;2.258;2023-05-07T02:10:21;16.40;99.90
41058;DHT22;66768;48.884;2.258;2023-05-07T02:12:48;16.40;99.90
41058;DHT22;66768;48.884;2.258;2023-05-07T02:15:16;16.40;99.90
41058;DHT22;66768;48.884;2.258;2023-05-07T02:17:58;16.40;99.90
41058;DHT22;66768;48.884;2.258;2023-05-07T02:20:26;16.40;99.90
41058;DHT22;66768;48.884;2.258;2023-05-07T02:22:53;16.40;99.90
41058;DHT22;66768;48.884;2.258;2023-05-07T02:25:20;16.40;99.90
41058;DHT22;66768;48.884;2.258;2023-05-07T02:27:47;16.40;99.90
41058;DHT22;66768;48.884;2.258;2023-05-07T02:30:15;16.40;99.90
41058;DHT22;66768;48.884;2.258;2023-05-07T02:32:42;16.40;99.90
41058;DHT22;66768;48.884;2.258;2023-05-07T02:35:10;16.40;99.90
41058;DHT22;66768;48.884;2.258;2023-05-07T02:37:37;16.40;99.90
41058;DHT22;66768;48.884;2.258;2023-05-07T02:40:05;16.40;99.90
41058;DHT22;66768;48.884;2.258;2023-05-07T02:42:32;16.40;99.90
41058;DHT22;66768;48.884;2.258;2023-05-07T02:44:58;16.40;99.90
41058;DHT22;66768;48.884;2.258;2023-05-07T02:47:27;16.40;99.90
41058;DHT22;66768;48.884;2.258;2023-05-07T02:49:54;16.40;99.90
41058;DHT22;66768;48.884;2.258;2023-05-07T02:52:21;16.40;99.90
41058;DHT22;66768;48.884;2.258;2023-05-07T02:54:48;16.40;99.90
41058;DHT22;66768;48.884;2.258;2023-05-07T02:57:15;16.40;99.90
41058;DHT22;66768;48.884;2.258;2023-05-07T02:59:42;16.30;99.90
41058;DHT22;66768;48.884;2.258;2023-05-07T03:02:09;16.30;99.90
41058;DHT22;66768;48.884;2.258;2023-05-07T03:04:37;16.30;99.90
41058;DHT22;66768;48.884;2.258;2023-05-07T03:07:04;16.30;99.90
41058;DHT22;66768;48.884;2.258;2023-05-07T03:09:31;16.30;99.90
41058;DHT22;66768;48.884;2.258;2023-05-07T03:11:57;16.30;99.90
41058;DHT22;66768;48.884;2.258;2023-05-07T03:14:24;16.30;99.90
41058;DHT22;66768;48.884;2.258;2023-05-07T03:16:51;16.30;99.90
41058;DHT22;66768;48.884;2.258;2023-05-07T03:19:18;16.20;99.90
41058;DHT22;66768;48.884;2.258;2023-05-07T03:21:46;16.30;99.90
41058;DHT22;66768;48.884;2.258;2023-05-07T03:24:13;16.20;99.90
41058;DHT22;66768;48.884;2.258;2023-05-07T03:26:40;16.20;99.90
41058;DHT22;66768;48.884;2.258;2023-05-07T03:29:07;16.20;99.90
41058;DHT22;66768;48.884;2.258;2023-05-07T03:31:34;16.20;99.90
41058;DHT22;66768;48.884;2.258;2023-05-07T03:34:00;16.20;99.90
41058;DHT22;66768;48.884;2.258;2023-05-07T03:36:27;16.20;99.90
41058;DHT22;66768;48.884;2.258;2023-05-07T03:38:56;16.20;99.90
41058;DHT22;66768;48.884;2.258;2023-05-07T03:41:23;16.20;99.90
41058;DHT22;66768;48.884;2.258;2023-05-07T03:43:51;16.20;99.90
41058;DHT22;66768;48.884;2.258;2023-05-07T03:46:17;16.20;99.90
41058;DHT22;66768;48.884;2.258;2023-05-07T03:48:44;16.20;99.90
41058;DHT22;66768;48.884;2.258;2023-05-07T03:51:11;16.20;99.90
41058;DHT22;66768;48.884;2.258;2023-05-07T03:53:38;16.20;99.90
41058;DHT22;66768;48.884;2.258;2023-05-07T03:56:06;16.10;99.90
41058;DHT22;66768;48.884;2.258;2023-05-07T03:58:33;16.10;99.90
41058;DHT22;66768;48.884;2.258;2023-05-07T04:01:00;16.10;99.90
41058;DHT22;66768;48.884;2.258;2023-05-07T04:03:27;16.10;99.90
41058;DHT22;66768;48.884;2.258;2023-05-07T04:05:54;16.10;99.90
41058;DHT22;66768;48.884;2.258;2023-05-07T04:08:21;16.00;99.90
41058;DHT22;66768;48.884;2.258;2023-05-07T04:10:48;16.10;99.90
41058;DHT22;66768;48.884;2.258;2023-05-07T04:13:16;16.10;99.90
41058;DHT22;66768;48.884;2.258;2023-05-07T04:15:43;16.00;99.90
41058;DHT22;66768;48.884;2.258;2023-05-07T04:18:11;16.10;99.90
41058;DHT22;66768;48.884;2.258;2023-05-07T04:20:38;16.00;99.90
41058;DHT22;66768;48.884;2.258;2023-05-07T04:23:05;16.10;99.90
41058;DHT22;66768;48.884;2.258;2023-05-07T04:25:32;16.00;99.90
41058;DHT22;66768;48.884;2.258;2023-05-07T04:27:59;16.10;99.90
41058;DHT22;66768;48.884;2.258;2023-05-07T04:30:28;16.10;99.90
41058;DHT22;66768;48.884;2.258;2023-05-07T04:32:54;16.00;99.90
41058;DHT22;66768;48.884;2.258;2023-05-07T04:35:22;16.10;99.90
41058;DHT22;66768;48.884;2.258;2023-05-07T04:37:49;16.10;99.90
41058;DHT22;66768;48.884;2.258;2023-05-07T04:40:16;16.10;99.90
41058;DHT22;66768;48.884;2.258;2023-05-07T04:42:43;16.00;99.90
41058;DHT22;66768;48.884;2.258;2023-05-07T04:45:10;16.00;99.90
41058;DHT22;66768;48.884;2.258;2023-05-07T04:47:39;16.10;99.90
41058;DHT22;66768;48.884;2.258;2023-05-07T04:50:07;16.00;99.90
41058;DHT22;66768;48.884;2.258;2023-05-07T04:52:34;16.00;99.90
41058;DHT22;66768;48.884;2.258;2023-05-07T04:55:01;16.10;99.90
41058;DHT22;66768;48.884;2.258;2023-05-07T04:57:28;16.00;99.90
41058;DHT22;66768;48.884;2.258;2023-05-07T04:59:54;16.10;99.90
41058;DHT22;66768;48.884;2.258;2023-05-07T05:02:21;16.00;99.90
41058;DHT22;66768;48.884;2.258;2023-05-07T05:04:50;16.00;99.90
41058;DHT22;66768;48.884;2.258;2023-05-07T05:07:17;16.00;99.90
41058;DHT22;66768;48.884;2.258;2023-05-07T05:09:43;16.10;99.90
41058;DHT22;66768;48.884;2.258;2023-05-07T05:12:10;16.10;99.90
41058;DHT22;66768;48.884;2.258;2023-05-07T05:14:37;16.10;99.90
41058;DHT22;66768;48.884;2.258;2023-05-07T05:17:04;16.10;99.90
41058;DHT22;66768;48.884;2.258;2023-05-07T05:19:31;16.10;99.90
41058;DHT22;66768;48.884;2.258;2023-05-07T05:21:59;16.10;99.90
41058;DHT22;66768;48.884;2.258;2023-05-07T05:24:26;16.10;99.90
41058;DHT22;66768;48.884;2.258;2023-05-07T05:26:53;16.10;99.90
41058;DHT22;66768;48.884;2.258;2023-05-07T05:29:20;16.00;99.90
41058;DHT22;66768;48.884;2.258;2023-05-07T05:31:47;16.10;99.90
41058;DHT22;66768;48.884;2.258;2023-05-07T05:34:14;16.10;99.90
41058;DHT22;66768;48.884;2.258;2023-05-07T05:36:41;16.10;99.90
41058;DHT22;66768;48.884;2.258;2023-05-07T05:39:09;16.00;99.90
41058;DHT22;66768;48.884;2.258;2023-05-07T05:41:36;16.00;99.90
41058;DHT22;66768;48.884;2.258;2023-05-07T05:44:03;16.10;99.90
41058;DHT22;66768;48.884;2.258;2023-05-07T05:46:30;16.10;99.90
41058;DHT22;66768;48.884;2.258;2023-05-07T05:48:56;16.10;99.90
41058;DHT22;66768;48.884;2.258;2023-05-07T05:51:23;16.10;99.90
41058;DHT22;66768;48.884;2.258;2023-05-07T05:53:50;16.10;99.90
41058;DHT22;66768;48.884;2.258;2023-05-07T05:56:19;16.10;99.90
41058;DHT22;66768;48.884;2.258;2023-05-07T05:58:46;16.10;99.90
41058;DHT22;66768;48.884;2.258;2023-05-07T06:01:13;16.10;99.90
41058;DHT22;66768;48.884;2.258;2023-05-07T06:03:40;16.10;99.90
41058;DHT22;66768;48.884;2.258;2023-05-07T06:06:07;16.10;99.90
41058;DHT22;66768;48.884;2.258;2023-05-07T06:08:34;16.10;99.90
41058;DHT22;66768;48.884;2.258;2023-05-07T06:11:01;16.10;99.90
41058;DHT22;66768;48.884;2.258;2023-05-07T06:13:30;16.20;99.90
41058;DHT22;66768;48.884;2.258;2023-05-07T06:15:57;16.20;99.90
41058;DHT22;66768;48.884;2.258;2023-05-07T06:18:24;16.20;99.90
41058;DHT22;66768;48.884;2.258;2023-05-07T06:20:51;16.20;99.90
41058;DHT22;66768;48.884;2.258;2023-05-07T06:23:18;16.20;99.90
41058;DHT22;66768;48.884;2.258;2023-05-07T06:25:49;16.20;99.90
41058;DHT22;66768;48.884;2.258;2023-05-07T06:28:16;16.20;99.90
41058;DHT22;66768;48.884;2.258;2023-05-07T06:30:45;16.30;99.90
41058;DHT22;66768;48.884;2.258;2023-05-07T06:33:12;16.30;99.90
41058;DHT22;66768;48.884;2.258;2023-05-07T06:35:38;16.20;99.90
41058;DHT22;66768;48.884;2.258;2023-05-07T06:38:05;16.30;99.90
41058;DHT22;66768;48.884;2.258;2023-05-07T06:40:33;16.30;99.90
41058;DHT22;66768;48.884;2.258;2023-05-07T06:42:59;16.30;99.90
41058;DHT22;66768;48.884;2.258;2023-05-07T06:45:26;16.30;99.90
41058;DHT22;66768;48.884;2.258;2023-05-07T06:47:54;16.30;99.90
41058;DHT22;66768;48.884;2.258;2023-05-07T06:50:21;16.40;99.90
41058;DHT22;66768;48.884;2.258;2023-05-07T06:52:48;16.40;99.90
41058;DHT22;66768;48.884;2.258;2023-05-07T06:55:15;16.40;99.90
41058;DHT22;66768;48.884;2.258;2023-05-07T06:57:42;16.40;99.90
41058;DHT22;66768;48.884;2.258;2023-05-07T07:00:10;16.40;99.90
41058;DHT22;66768;48.884;2.258;2023-05-07T07:02:37;16.50;99.90
41058;DHT22;66768;48.884;2.258;2023-05-07T07:05:06;16.50;99.90
41058;DHT22;66768;48.884;2.258;2023-05-07T07:07:33;16.40;99.90
41058;DHT22;66768;48.884;2.258;2023-05-07T07:10:00;16.50;99.90
41058;DHT22;66768;48.884;2.258;2023-05-07T07:12:27;16.40;99.90
41058;DHT22;66768;48.884;2.258;2023-05-07T07:14:55;16.40;99.90
41058;DHT22;66768;48.884;2.258;2023-05-07T07:17:22;16.40;99.90
41058;DHT22;66768;48.884;2.258;2023-05-07T07:19:49;16.40;99.90
41058;DHT22;66768;48.884;2.258;2023-05-07T07:22:17;16.40;99.90
41058;DHT22;66768;48.884;2.258;2023-05-07T07:24:44;16.40;99.90
41058;DHT22;66768;48.884;2.258;2023-05-07T07:27:11;16.40;99.90
41058;DHT22;66768;48.884;2.258;2023-05-07T07:29:37;16.40;99.90
41058;DHT22;66768;48.884;2.258;2023-05-07T07:32:04;16.40;99.90
41058;DHT22;66768;48.884;2.258;2023-05-07T07:34:31;16.40;99.90
41058;DHT22;66768;48.884;2.258;2023-05-07T07:36:58;16.40;99.90
41058;DHT22;66768;48.884;2.258;2023-05-07T07:39:32;16.40;99.90
41058;DHT22;66768;48.884;2.258;2023-05-07T07:41:59;16.40;99.90
41058;DHT22;66768;48.884;2.258;2023-05-07T07:44:27;16.40;99.90
41058;DHT22;66768;48.884;2.258;2023-05-07T07:46:53;16.40;99.90
41058;DHT22;66768;48.884;2.258;2023-05-07T07:49:20;16.40;99.90
41058;DHT22;66768;48.884;2.258;2023-05-07T07:51:47;16.40;99.90
41058;DHT22;66768;48.884;2.258;2023-05-07T07:54:14;16.40;99.90
41058;DHT22;66768;48.884;2.258;2023-05-07T07:56:43;16.40;99.90
41058;DHT22;66768;48.884;2.258;2023-05-07T07:59:10;16.40;99.90
41058;DHT22;66768;48.884;2.258;2023-05-07T08:01:37;16.40;99.90
41058;DHT22;66768;48.884;2.258;2023-05-07T08:04:05;16.50;99.90
41058;DHT22;66768;48.884;2.258;2023-05-07T08:06:31;16.50;99.90
41058;DHT22;66768;48.884;2.258;2023-05-07T08:08:58;16.60;99.90
41058;DHT22;66768;48.884;2.258;2023-05-07T08:11:25;16.60;99.90
41058;DHT22;66768;48.884;2.258;2023-05-07T08:13:54;16.60;99.90
41058;DHT22;66768;48.884;2.258;2023-05-07T08:16:21;16.70;99.90
41058;DHT22;66768;48.884;2.258;2023-05-07T08:18:48;16.70;99.90
41058;DHT22;66768;48.884;2.258;2023-05-07T08:21:14;16.80;99.90
41058;DHT22;66768;48.884;2.258;2023-05-07T08:23:41;16.80;99.90
41058;DHT22;66768;48.884;2.258;2023-05-07T08:26:08;16.80;99.90
41058;DHT22;66768;48.884;2.258;2023-05-07T08:28:35;16.80;99.90
41058;DHT22;66768;48.884;2.258;2023-05-07T08:31:03;16.80;99.90
41058;DHT22;66768;48.884;2.258;2023-05-07T08:33:30;16.90;99.90
41058;DHT22;66768;48.884;2.258;2023-05-07T08:35:59;17.00;99.90
41058;DHT22;66768;48.884;2.258;2023-05-07T08:38:26;17.10;99.90
41058;DHT22;66768;48.884;2.258;2023-05-07T08:40:52;17.10;99.90
41058;DHT22;66768;48.884;2.258;2023-05-07T08:43:19;17.10;99.90
41058;DHT22;66768;48.884;2.258;2023-05-07T08:45:49;17.10;99.90
41058;DHT22;66768;48.884;2.258;2023-05-07T08:48:23;17.10;99.90
41058;DHT22;66768;48.884;2.258;2023-05-07T08:50:52;17.20;99.90
41058;DHT22;66768;48.884;2.258;2023-05-07T08:53:20;17.20;99.90
41058;DHT22;66768;48.884;2.258;2023-05-07T08:55:47;17.20;99.90
41058;DHT22;66768;48.884;2.258;2023-05-07T08:58:15;17.20;99.90
41058;DHT22;66768;48.884;2.258;2023-05-07T09:00:42;17.20;99.90
41058;DHT22;66768;48.884;2.258;2023-05-07T09:03:09;17.10;99.90
41058;DHT22;66768;48.884;2.258;2023-05-07T09:05:39;17.10;99.90
41058;DHT22;66768;48.884;2.258;2023-05-07T09:08:07;17.20;99.90
41058;DHT22;66768;48.884;2.258;2023-05-07T09:10:35;17.20;99.90
41058;DHT22;66768;48.884;2.258;2023-05-07T09:13:02;17.20;99.90
41058;DHT22;66768;48.884;2.258;2023-05-07T09:15:30;17.20;99.90
41058;DHT22;66768;48.884;2.258;2023-05-07T09:17:59;17.20;99.90
41058;DHT22;66768;48.884;2.258;2023-05-07T09:20:29;17.20;99.90
41058;DHT22;66768;48.884;2.258;2023-05-07T09:22:57;17.30;99.90
41058;DHT22;66768;48.884;2.258;2023-05-07T09:25:34;17.30;99.90
41058;DHT22;66768;48.884;2.258;2023-05-07T09:28:03;17.40;99.90
41058;DHT22;66768;48.884;2.258;2023-05-07T09:30:30;17.40;99.90
41058;DHT22;66768;48.884;2.258;2023-05-07T09:32:58;17.50;99.90
41058;DHT22;66768;48.884;2.258;2023-05-07T09:35:26;17.60;99.90
41058;DHT22;66768;48.884;2.258;2023-05-07T09:37:53;17.60;99.90
41058;DHT22;66768;48.884;2.258;2023-05-07T09:40:22;17.50;99.90
41058;DHT22;66768;48.884;2.258;2023-05-07T09:42:50;17.60;99.90
41058;DHT22;66768;48.884;2.258;2023-05-07T09:45:21;17.60;99.90
41058;DHT22;66768;48.884;2.258;2023-05-07T09:47:49;17.70;99.90
41058;DHT22;66768;48.884;2.258;2023-05-07T09:50:22;17.80;99.90
41058;DHT22;66768;48.884;2.258;2023-05-07T09:52:52;17.90;99.90
41058;DHT22;66768;48.884;2.258;2023-05-07T09:55:20;17.90;99.90
41058;DHT22;66768;48.884;2.258;2023-05-07T09:57:50;18.00;99.90
41058;DHT22;66768;48.884;2.258;2023-05-07T10:00:18;18.00;99.90
41058;DHT22;66768;48.884;2.258;2023-05-07T10:02:47;18.10;99.90
41058;DHT22;66768;48.884;2.258;2023-05-07T10:05:15;18.00;99.90
41058;DHT22;66768;48.884;2.258;2023-05-07T10:07:43;18.00;99.90
41058;DHT22;66768;48.884;2.258;2023-05-07T10:10:11;18.00;99.90
41058;DHT22;66768;48.884;2.258;2023-05-07T10:12:38;17.90;99.90
41058;DHT22;66768;48.884;2.258;2023-05-07T10:15:10;17.90;99.90
41058;DHT22;66768;48.884;2.258;2023-05-07T10:17:38;17.90;99.90
41058;DHT22;66768;48.884;2.258;2023-05-07T10:20:07;17.90;99.90
41058;DHT22;66768;48.884;2.258;2023-05-07T10:22:38;17.90;99.90
41058;DHT22;66768;48.884;2.258;2023-05-07T10:25:08;17.90;99.90
41058;DHT22;66768;48.884;2.258;2023-05-07T10:27:36;18.00;99.90
41058;DHT22;66768;48.884;2.258;2023-05-07T10:30:12;18.00;99.90
41058;DHT22;66768;48.884;2.258;2023-05-07T10:32:45;18.00;99.90
41058;DHT22;66768;48.884;2.258;2023-05-07T10:35:17;18.00;99.90
41058;DHT22;66768;48.884;2.258;2023-05-07T10:37:44;18.00;99.90
41058;DHT22;66768;48.884;2.258;2023-05-07T10:40:12;18.00;99.90
41058;DHT22;66768;48.884;2.258;2023-05-07T10:42:53;18.00;99.90
41058;DHT22;66768;48.884;2.258;2023-05-07T10:45:23;18.00;99.90
41058;DHT22;66768;48.884;2.258;2023-05-07T10:48:06;18.00;99.90
41058;DHT22;66768;48.884;2.258;2023-05-07T10:50:33;18.00;99.90
41058;DHT22;66768;48.884;2.258;2023-05-07T10:53:25;18.00;99.90
41058;DHT22;66768;48.884;2.258;2023-05-07T10:56:24;17.90;99.90
41058;DHT22;66768;48.884;2.258;2023-05-07T10:58:51;17.90;99.90
41058;DHT22;66768;48.884;2.258;2023-05-07T11:01:49;17.90;99.90
41058;DHT22;66768;48.884;2.258;2023-05-07T11:04:17;17.90;99.90
41058;DHT22;66768;48.884;2.258;2023-05-07T11:09:56;17.80;99.90
41058;DHT22;66768;48.884;2.258;2023-05-07T11:12:51;17.80;99.90
41058;DHT22;66768;48.884;2.258;2023-05-07T11:15:37;17.80;99.90
41058;DHT22;66768;48.884;2.258;2023-05-07T11:18:06;17.80;99.90
41058;DHT22;66768;48.884;2.258;2023-05-07T11:20:57;17.80;99.90
41058;DHT22;66768;48.884;2.258;2023-05-07T11:23:55;17.90;99.90
41058;DHT22;66768;48.884;2.258;2023-05-07T11:26:46;18.00;99.90
41058;DHT22;66768;48.884;2.258;2023-05-07T11:29:15;18.10;99.90
41058;DHT22;66768;48.884;2.258;2023-05-07T11:31:42;18.20;99.90
41058;DHT22;66768;48.884;2.258;2023-05-07T11:34:11;18.40;99.90
41058;DHT22;66768;48.884;2.258;2023-05-07T11:36:43;18.50;99.90
41058;DHT22;66768;48.884;2.258;2023-05-07T11:39:26;18.60;99.90
41058;DHT22;66768;48.884;2.258;2023-05-07T11:41:53;18.70;99.90
41058;DHT22;66768;48.884;2.258;2023-05-07T11:44:19;18.80;99.90
41058;DHT22;66768;48.884;2.258;2023-05-07T11:46:46;18.80;99.90
41058;DHT22;66768;48.884;2.258;2023-05-07T11:49:15;18.90;99.90
41058;DHT22;66768;48.884;2.258;2023-05-07T11:51:42;18.80;99.90
41058;DHT22;66768;48.884;2.258;2023-05-07T11:54:10;18.90;99.90
41058;DHT22;66768;48.884;2.258;2023-05-07T11:56:39;18.80;99.90
41058;DHT22;66768;48.884;2.258;2023-05-07T11:59:07;18.80;99.90
41058;DHT22;66768;48.884;2.258;2023-05-07T12:01:35;18.80;99.90
41058;DHT22;66768;48.884;2.258;2023-05-07T12:04:03;18.80;99.90
41058;DHT22;66768;48.884;2.258;2023-05-07T12:06:36;18.80;99.90
41058;DHT22;66768;48.884;2.258;2023-05-07T12:09:06;18.80;99.90
41058;DHT22;66768;48.884;2.258;2023-05-07T12:11:36;18.70;99.90
41058;DHT22;66768;48.884;2.258;2023-05-07T12:14:05;18.80;99.90
41058;DHT22;66768;48.884;2.258;2023-05-07T12:16:32;18.80;99.90
41058;DHT22;66768;48.884;2.258;2023-05-07T12:18:59;18.80;99.90
41058;DHT22;66768;48.884;2.258;2023-05-07T12:21:26;18.70;99.90
41058;DHT22;66768;48.884;2.258;2023-05-07T12:23:55;18.60;99.90
41058;DHT22;66768;48.884;2.258;2023-05-07T12:26:22;18.60;99.90
41058;DHT22;66768;48.884;2.258;2023-05-07T12:28:50;18.60;99.90
41058;DHT22;66768;48.884;2.258;2023-05-07T12:31:17;18.60;99.90
41058;DHT22;66768;48.884;2.258;2023-05-07T12:33:44;18.50;99.90
41058;DHT22;66768;48.884;2.258;2023-05-07T12:36:12;18.50;99.90
41058;DHT22;66768;48.884;2.258;2023-05-07T12:38:40;18.50;99.90
41058;DHT22;66768;48.884;2.258;2023-05-07T12:41:09;18.40;99.90
41058;DHT22;66768;48.884;2.258;2023-05-07T12:43:37;18.40;99.90
41058;DHT22;66768;48.884;2.258;2023-05-07T12:46:05;18.40;99.90
41058;DHT22;66768;48.884;2.258;2023-05-07T12:48:32;18.40;99.90
41058;DHT22;66768;48.884;2.258;2023-05-07T12:51:01;18.30;99.90
41058;DHT22;66768;48.884;2.258;2023-05-07T12:53:29;18.30;99.90
41058;DHT22;66768;48.884;2.258;2023-05-07T12:55:57;18.30;99.90
41058;DHT22;66768;48.884;2.258;2023-05-07T12:58:28;18.30;99.90
41058;DHT22;66768;48.884;2.258;2023-05-07T13:00:55;18.30;99.90
41058;DHT22;66768;48.884;2.258;2023-05-07T13:03:25;18.30;99.90
41058;DHT22;66768;48.884;2.258;2023-05-07T13:05:53;18.30;99.90
41058;DHT22;66768;48.884;2.258;2023-05-07T13:08:29;18.30;99.90
41058;DHT22;66768;48.884;2.258;2023-05-07T13:10:57;18.30;99.90
41058;DHT22;66768;48.884;2.258;2023-05-07T13:13:25;18.20;99.90
41058;DHT22;66768;48.884;2.258;2023-05-07T13:15:52;18.20;99.90
41058;DHT22;66768;48.884;2.258;2023-05-07T13:18:19;18.20;99.90
41058;DHT22;66768;48.884;2.258;2023-05-07T13:20:46;18.20;99.90
41058;DHT22;66768;48.884;2.258;2023-05-07T13:23:13;18.30;99.90
41058;DHT22;66768;48.884;2.258;2023-05-07T13:25:40;18.20;99.90
41058;DHT22;66768;48.884;2.258;2023-05-07T13:28:06;18.20;99.90
41058;DHT22;66768;48.884;2.258;2023-05-07T13:30:35;18.20;99.90
41058;DHT22;66768;48.884;2.258;2023-05-07T13:33:02;18.10;99.90
41058;DHT22;66768;48.884;2.258;2023-05-07T13:35:29;18.10;99.90
41058;DHT22;66768;48.884;2.258;2023-05-07T13:37:56;18.00;99.90
41058;DHT22;66768;48.884;2.258;2023-05-07T13:40:23;18.00;99.90
41058;DHT22;66768;48.884;2.258;2023-05-07T13:42:50;18.00;99.90
41058;DHT22;66768;48.884;2.258;2023-05-07T13:45:17;18.00;99.90
41058;DHT22;66768;48.884;2.258;2023-05-07T13:47:46;18.00;99.90
41058;DHT22;66768;48.884;2.258;2023-05-07T13:50:14;18.00;99.90
41058;DHT22;66768;48.884;2.258;2023-05-07T13:52:42;18.00;99.90
41058;DHT22;66768;48.884;2.258;2023-05-07T13:55:11;17.90;99.90
41058;DHT22;66768;48.884;2.258;2023-05-07T13:57:38;18.00;99.90
41058;DHT22;66768;48.884;2.258;2023-05-07T14:00:07;17.90;99.90
41058;DHT22;66768;48.884;2.258;2023-05-07T14:02:34;17.90;99.90
41058;DHT22;66768;48.884;2.258;2023-05-07T14:05:03;18.00;99.90
41058;DHT22;66768;48.884;2.258;2023-05-07T14:07:30;18.00;99.90
41058;DHT22;66768;48.884;2.258;2023-05-07T14:09:57;18.00;99.90
41058;DHT22;66768;48.884;2.258;2023-05-07T14:12:24;18.10;99.90
41058;DHT22;66768;48.884;2.258;2023-05-07T14:14:51;18.10;99.90
41058;DHT22;66768;48.884;2.258;2023-05-07T14:17:18;18.10;99.90
41058;DHT22;66768;48.884;2.258;2023-05-07T14:19:45;18.20;99.90
41058;DHT22;66768;48.884;2.258;2023-05-07T14:22:14;18.20;99.90
41058;DHT22;66768;48.884;2.258;2023-05-07T14:24:41;18.20;99.90
41058;DHT22;66768;48.884;2.258;2023-05-07T14:27:09;18.30;99.90
41058;DHT22;66768;48.884;2.258;2023-05-07T14:29:36;18.40;99.90
41058;DHT22;66768;48.884;2.258;2023-05-07T14:32:03;18.40;99.90
41058;DHT22;66768;48.884;2.258;2023-05-07T14:34:31;18.40;99.90
41058;DHT22;66768;48.884;2.258;2023-05-07T14:36:58;18.50;99.90
41058;DHT22;66768;48.884;2.258;2023-05-07T14:39:26;18.60;99.90
41058;DHT22;66768;48.884;2.258;2023-05-07T14:41:53;18.60;99.90
41058;DHT22;66768;48.884;2.258;2023-05-07T14:44:21;18.60;99.90
41058;DHT22;66768;48.884;2.258;2023-05-07T14:46:48;18.70;99.90
41058;DHT22;66768;48.884;2.258;2023-05-07T14:49:15;18.60;99.90
41058;DHT22;66768;48.884;2.258;2023-05-07T14:51:43;18.70;99.90
41058;DHT22;66768;48.884;2.258;2023-05-07T14:54:10;18.60;99.90
41058;DHT22;66768;48.884;2.258;2023-05-07T14:56:39;18.60;99.90
41058;DHT22;66768;48.884;2.258;2023-05-07T14:59:07;18.50;99.90
41058;DHT22;66768;48.884;2.258;2023-05-07T15:01:34;18.40;99.90
41058;DHT22;66768;48.884;2.258;2023-05-07T15:04:03;18.20;99.90
41058;DHT22;66768;48.884;2.258;2023-05-07T15:06:30;18.00;99.90
41058;DHT22;66768;48.884;2.258;2023-05-07T15:08:57;18.00;99.90
41058;DHT22;66768;48.884;2.258;2023-05-07T15:11:24;17.90;99.90
41058;DHT22;66768;48.884;2.258;2023-05-07T15:13:52;17.70;99.90
41058;DHT22;66768;48.884;2.258;2023-05-07T15:16:19;17.60;99.90
41058;DHT22;66768;48.884;2.258;2023-05-07T15:18:46;17.50;99.90
41058;DHT22;66768;48.884;2.258;2023-05-07T15:21:13;17.50;99.90
41058;DHT22;66768;48.884;2.258;2023-05-07T15:23:40;17.50;99.90
41058;DHT22;66768;48.884;2.258;2023-05-07T15:26:07;17.40;99.90
41058;DHT22;66768;48.884;2.258;2023-05-07T15:28:34;17.40;99.90
41058;DHT22;66768;48.884;2.258;2023-05-07T15:31:02;17.30;99.90
41058;DHT22;66768;48.884;2.258;2023-05-07T15:33:30;17.40;99.90
41058;DHT22;66768;48.884;2.258;2023-05-07T15:35:57;17.30;99.90
41058;DHT22;66768;48.884;2.258;2023-05-07T15:38:25;17.40;99.90
41058;DHT22;66768;48.884;2.258;2023-05-07T15:40:51;17.40;99.90